Court-Saint-Etienne, Belgium
Current Conditions -  °F | °C
As of 1:05 PM on Friday 24 Oct 2014 (Local Time) from EBBE Reporting Station
Light Rain Light Rain  
Wind Chill: 54°   Ceiling: 7000
Heat Index: 54°   Visibility: 6mi
Dew Point: 46°   Wind: 16mph
Humidity: 77%   Direction: 200°SSW
Pressure: 30.09"   Gusts: NA
Location:  50.63°N, 4.57°E
Report Text: EBBE 241105Z 20014KT 9999 -RA FEW030 BKN070 12/08 Q1019 BLU BLU BECMG WHT
Loading
Personal Weather Stations






























Interactive Weather Map
Tropical Storm Tracking
New forecast layout! Learn more

10-Day Weather Forecast

Advertisements
Track Severe Weather on mobile